In Rescue
 
Open Full Screen Window  High Contrast Mode
April 02, 2020 11:25 PM EDT
Weather Information
Wind Direction
  ---
Wind Speed
  00 kt (0 mph)
Wind Gust
  00 kt (0 mph)
Altimeter
30.07 in
Visibility
10 SM
Temperature
04° C
39° F
Dewpoint
00° C
32° F
Humidity
75%
Sky Condition
Clear
VFR

METAR KRNP 030325Z AUTO 00000KT 10SM CLR 04/00 A3007 RMK AO2 T00430000

FAA Disclaimer: The data displayed is for advisory purposes only and is not to be used for flight planning or operations.